Time;durP1;ratioP1;P1;durP2;ratioP2;P2;SDS_P1;SDS_P2;PMS_P1;PMS_P2;Temp;Humidity;BMP_temperature;BMP_pressure;BME280_temperature;BME280_humidity;BME280_pressure;Samples;Min_cycle;Max_cycle;Signal;HPM_P1;HPM_P2
2021/07/24 00:02:18;;;;;;;10.20;9.18;;;;;;;18.45;62.57;101511.06;6127307;28;20222;-49
2021/07/24 00:05:39;;;;;;;11.40;10.15;;;;;;;18.28;63.68;101507.19;6118803;28;20635;-52
2021/07/24 00:09:04;;;;;;;11.95;10.85;;;;;;;18.41;62.96;101507.66;6116185;28;20232;-50
2021/07/24 00:12:25;;;;;;;10.70;9.65;;;;;;;18.23;63.43;101501.19;6128417;28;20549;-53
2021/07/24 00:15:47;;;;;;;11.60;10.43;;;;;;;18.16;63.98;101506.69;6129073;28;20925;-53
2021/07/24 00:19:08;;;;;;;11.27;10.18;;;;;;;18.24;63.75;101504.69;6122579;28;20232;-54
2021/07/24 00:22:29;;;;;;;12.18;10.60;;;;;;;18.08;64.08;101501.66;6131606;28;20239;-53
2021/07/24 00:25:50;;;;;;;11.10;9.60;;;;;;;18.06;64.24;101491.13;6121176;28;20638;-54
2021/07/24 00:29:10;;;;;;;9.05;8.02;;;;;;;17.98;64.44;101490.50;6131826;28;20242;-49
2021/07/24 00:32:33;;;;;;;10.20;9.20;;;;;;;18.05;64.14;101489.44;6126866;28;20239;-49
2021/07/24 00:35:54;;;;;;;11.20;10.13;;;;;;;18.23;63.18;101493.28;6122300;28;20236;-49
2021/07/24 00:42:44;;;;;;;10.97;8.70;;;;;;;18.03;64.09;101493.88;6378580;23;20261;-53
2021/07/24 00:46:06;;;;;;;10.38;9.35;;;;;;;18.08;63.89;101488.47;6108749;28;20227;-50
2021/07/24 00:49:33;;;;;;;8.80;7.90;;;;;;;18.01;63.93;101482.53;6104363;28;20597;-51
2021/07/24 00:53:00;;;;;;;10.95;9.85;;;;;;;17.89;64.41;101489.03;6107194;28;20231;-50
2021/07/24 00:56:23;;;;;;;10.70;9.75;;;;;;;17.99;64.03;101488.72;6101532;28;20231;-50
2021/07/24 00:59:44;;;;;;;9.63;8.77;;;;;;;17.86;64.54;101493.50;6112400;28;20280;-49
2021/07/24 01:03:05;;;;;;;9.52;8.63;;;;;;;18.00;63.68;101495.75;6097960;28;20236;-49
2021/07/24 01:06:27;;;;;;;10.80;9.90;;;;;;;17.83;64.59;101491.78;6109744;28;20235;-54
2021/07/24 01:09:51;;;;;;;10.00;8.73;;;;;;;17.96;64.01;101486.22;6120420;28;20255;-49
2021/07/24 01:13:16;;;;;;;11.20;9.98;;;;;;;17.90;64.23;101492.50;6119930;28;21037;-51
2021/07/24 01:16:37;;;;;;;11.57;10.47;;;;;;;17.64;65.17;101487.94;6109252;28;20799;-54
2021/07/24 01:20:11;;;;;;;11.30;8.83;;;;;;;17.76;64.85;101489.34;6101093;28;20236;-54
2021/07/24 01:23:35;;;;;;;9.52;8.63;;;;;;;17.86;64.24;101486.47;6117762;28;20235;-54
2021/07/24 01:26:56;;;;;;;11.20;10.20;;;;;;;17.70;64.58;101487.78;6120079;28;20612;-49
2021/07/24 01:30:18;;;;;;;12.07;10.90;;;;;;;17.69;64.81;101491.31;6116663;28;20240;-54
2021/07/24 01:33:42;;;;;;;11.37;10.13;;;;;;;17.54;65.30;101489.09;6107894;28;20320;-52
2021/07/24 01:37:05;;;;;;;9.93;8.90;;;;;;;17.66;64.95;101480.84;6107203;28;20235;-53
2021/07/24 01:40:27;;;;;;;11.53;10.43;;;;;;;17.65;64.82;101484.41;6107611;28;20235;-51
2021/07/24 01:43:50;;;;;;;11.00;9.97;;;;;;;17.71;64.53;101489.50;6120876;28;20240;-52
2021/07/24 01:47:11;;;;;;;11.75;10.55;;;;;;;17.59;65.00;101489.84;6107678;28;20244;-49
2021/07/24 01:54:22;;;;;;;11.23;10.23;;;;;;;17.46;65.42;101484.91;6099075;28;20232;-51
2021/07/24 01:57:49;;;;;;;10.60;9.40;;;;;;;17.60;64.78;101474.00;6107621;28;20228;-52
2021/07/24 02:01:12;;;;;;;10.90;10.00;;;;;;;17.61;64.84;101474.88;6106233;28;20284;-50
2021/07/24 02:04:36;;;;;;;11.20;10.10;;;;;;;17.49;64.94;101476.06;6111487;28;20231;-51
2021/07/24 02:08:04;;;;;;;10.90;9.80;;;;;;;17.45;65.44;101474.44;6100607;28;20335;-51
2021/07/24 02:11:26;;;;;;;13.07;11.57;;;;;;;17.49;65.15;101461.13;6106207;28;20236;-52
2021/07/24 02:14:51;;;;;;;10.80;9.63;;;;;;;17.47;65.07;101470.84;6123040;28;20255;-49
2021/07/24 02:18:18;;;;;;;10.97;10.00;;;;;;;17.46;65.17;101463.84;6117140;28;20247;-51
2021/07/24 02:21:43;;;;;;;9.73;8.83;;;;;;;17.48;64.96;101462.03;6104873;28;20264;-53
2021/07/24 02:25:06;;;;;;;9.90;9.07;;;;;;;17.32;65.57;101450.19;6114234;28;20567;-53
2021/07/24 02:28:28;;;;;;;10.70;9.60;;;;;;;17.37;65.31;101436.91;6095845;28;20259;-53
2021/07/24 02:31:55;;;;;;;10.80;9.67;;;;;;;17.28;65.77;101438.03;6119261;28;20243;-51
2021/07/24 02:35:17;;;;;;;9.93;9.07;;;;;;;17.48;65.03;101443.59;6119693;28;20338;-52
2021/07/24 02:38:59;;;;;;;9.77;8.50;;;;;;;17.49;65.07;101426.03;6108884;28;20232;-54
2021/07/24 02:42:21;;;;;;;10.83;9.83;;;;;;;17.56;64.54;101424.09;6121917;28;20232;-52
2021/07/24 02:45:42;;;;;;;9.30;8.40;;;;;;;17.56;65.00;101421.47;6102129;28;20343;-53
2021/07/24 02:49:07;;;;;;;10.07;9.27;;;;;;;17.54;64.73;101415.38;6120029;28;20240;-52
2021/07/24 02:52:32;;;;;;;22.65;20.75;;;;;;;17.53;64.72;101414.53;6109775;28;20231;-54
2021/07/24 02:55:54;;;;;;;15.55;14.02;;;;;;;17.52;64.70;101411.03;6123414;28;20676;-54
2021/07/24 02:59:15;;;;;;;12.77;11.63;;;;;;;17.66;64.12;101405.34;6104785;28;20239;-50
2021/07/24 03:02:36;;;;;;;11.37;10.27;;;;;;;17.60;64.42;101413.44;6125594;28;20353;-52
2021/07/24 03:05:58;;;;;;;10.98;9.95;;;;;;;17.73;63.66;101399.91;6100938;28;20236;-51
2021/07/24 03:09:19;;;;;;;10.10;8.67;;;;;;;17.62;63.92;101397.56;6106574;28;20251;-52
2021/07/24 03:12:41;;;;;;;9.30;8.47;;;;;;;17.59;64.16;101389.78;6101881;28;20283;-49
2021/07/24 03:16:02;;;;;;;10.03;8.40;;;;;;;17.57;64.13;101387.19;6104538;28;20624;-48
2021/07/24 03:19:23;;;;;;;12.00;9.57;;;;;;;17.52;64.56;101378.53;6113624;28;20235;-48
2021/07/24 03:22:45;;;;;;;9.87;8.87;;;;;;;17.58;64.41;101378.34;6106882;28;20227;-52
2021/07/24 03:26:08;;;;;;;9.20;8.30;;;;;;;17.48;64.47;101369.00;6109587;28;20497;-50
2021/07/24 03:29:29;;;;;;;7.80;7.10;;;;;;;17.24;64.95;101367.97;6109540;28;20657;-52
2021/07/24 03:32:49;;;;;;;8.97;8.13;;;;;;;17.39;64.96;101362.25;6104213;28;20247;-52
2021/07/24 03:36:10;;;;;;;9.13;8.23;;;;;;;17.42;64.71;101362.16;6105470;28;20232;-47
2021/07/24 03:39:33;;;;;;;9.95;8.93;;;;;;;17.33;65.13;101362.41;6109949;28;20236;-50
2021/07/24 03:42:55;;;;;;;8.80;8.00;;;;;;;17.28;65.25;101365.19;6114591;28;20255;-50
2021/07/24 03:46:16;;;;;;;10.40;9.32;;;;;;;17.31;64.90;101375.63;6105399;28;20236;-50
2021/07/24 03:49:37;;;;;;;9.40;8.60;;;;;;;17.49;64.10;101371.59;6100784;28;20240;-51
2021/07/24 03:52:59;;;;;;;10.07;9.07;;;;;;;17.48;64.36;101367.22;6104765;28;20236;-47
2021/07/24 03:56:22;;;;;;;9.95;8.95;;;;;;;17.55;63.88;101374.97;6108332;28;20263;-49
2021/07/24 03:59:43;;;;;;;11.38;10.27;;;;;;;17.61;63.71;101373.03;6106545;28;20344;-50
2021/07/24 04:03:04;;;;;;;9.83;8.83;;;;;;;17.63;63.74;101371.19;6104167;28;20236;-50
2021/07/24 04:06:27;;;;;;;9.77;8.77;;;;;;;17.67;63.19;101366.72;6105394;28;20515;-52
2021/07/24 04:09:48;;;;;;;9.52;8.57;;;;;;;17.85;62.90;101374.06;6099871;28;20543;-53
2021/07/24 04:13:12;;;;;;;9.83;8.93;;;;;;;17.88;62.66;101368.72;6104816;28;20231;-51
2021/07/24 04:16:33;;;;;;;9.93;8.83;;;;;;;17.72;63.19;101370.06;6108205;28;20239;-50
2021/07/24 04:19:56;;;;;;;10.38;9.02;;;;;;;17.76;63.17;101366.44;6109070;28;20240;-47
2021/07/24 04:23:17;;;;;;;8.90;8.02;;;;;;;17.82;63.27;101371.50;6109463;28;20236;-50
2021/07/24 04:26:38;;;;;;;9.98;9.07;;;;;;;17.86;62.86;101365.28;6108293;28;20227;-47
2021/07/24 04:30:00;;;;;;;9.02;8.13;;;;;;;17.93;62.77;101350.13;6102821;28;20260;-51
2021/07/24 04:33:21;;;;;;;13.13;9.00;;;;;;;18.08;62.21;101357.53;6111737;28;20235;-50
2021/07/24 04:36:42;;;;;;;9.60;8.23;;;;;;;18.06;62.17;101362.00;6102538;28;20244;-48
2021/07/24 04:40:05;;;;;;;8.47;7.67;;;;;;;18.09;62.19;101361.91;6102469;28;20243;-49
2021/07/24 04:43:25;;;;;;;8.87;8.17;;;;;;;18.25;61.92;101362.28;6105961;28;20551;-51
2021/07/24 04:46:47;;;;;;;7.93;7.22;;;;;;;18.37;61.62;101358.38;6106101;28;20235;-50
2021/07/24 04:50:09;;;;;;;9.10;7.97;;;;;;;18.41;61.38;101359.16;6108125;28;20259;-53
2021/07/24 04:53:30;;;;;;;8.60;7.53;;;;;;;18.26;61.83;101361.38;6101572;28;20240;-52
2021/07/24 04:56:52;;;;;;;7.20;6.60;;;;;;;18.41;61.67;101365.28;6107731;28;20231;-53
2021/07/24 05:00:14;;;;;;;9.65;7.90;;;;;;;18.47;61.32;101366.84;6108308;28;20319;-51
2021/07/24 05:03:36;;;;;;;8.53;7.77;;;;;;;18.53;61.52;101374.56;6105993;28;20236;-48
2021/07/24 05:06:57;;;;;;;8.47;7.70;;;;;;;18.50;61.53;101380.81;6103709;28;20228;-47
2021/07/24 05:10:18;;;;;;;9.40;8.43;;;;;;;18.57;61.33;101397.31;6106768;28;20243;-52
2021/07/24 05:13:39;;;;;;;8.30;7.57;;;;;;;18.81;60.85;101400.06;6110095;28;20270;-51
2021/07/24 05:17:07;;;;;;;7.50;6.72;;;;;;;18.88;60.94;101401.53;6102650;28;20224;-51
2021/07/24 05:20:30;;;;;;;8.15;7.15;;;;;;;18.92;60.77;101407.59;6102520;28;20230;-48
2021/07/24 05:23:51;;;;;;;7.93;6.00;;;;;;;19.11;60.09;101413.94;6102479;28;20239;-50
2021/07/24 05:27:13;;;;;;;6.85;6.25;;;;;;;19.13;59.93;101413.91;6113359;28;20227;-48
2021/07/24 05:30:35;;;;;;;6.97;6.22;;;;;;;19.11;60.40;101407.81;6108238;28;20259;-50
2021/07/24 05:33:55;;;;;;;7.70;6.68;;;;;;;19.42;59.51;101405.78;6116858;28;20622;-51
2021/07/24 05:37:17;;;;;;;8.43;7.45;;;;;;;19.54;59.60;101406.25;6108024;28;20263;-50
2021/07/24 05:40:38;;;;;;;8.52;7.72;;;;;;;19.54;59.70;101404.50;6111237;28;20969;-50
2021/07/24 05:43:59;;;;;;;7.32;6.70;;;;;;;19.67;59.64;101399.59;6114801;28;20629;-51
2021/07/24 05:47:20;;;;;;;7.15;6.45;;;;;;;19.92;58.72;101388.97;6111562;28;20518;-52
2021/07/24 05:50:41;;;;;;;8.32;7.18;;;;;;;19.93;58.97;101384.53;6109343;28;20239;-49
2021/07/24 05:54:03;;;;;;;7.28;6.57;;;;;;;20.06;58.93;101394.59;6100766;28;20228;-54
2021/07/24 05:57:24;;;;;;;6.47;5.75;;;;;;;20.19;58.71;101384.38;6108875;28;20275;-48
2021/07/24 06:00:45;;;;;;;9.20;8.15;;;;;;;20.13;59.26;101376.69;6105542;28;20558;-50
2021/07/24 06:04:05;;;;;;;7.28;5.88;;;;;;;20.26;58.80;101372.63;6109591;28;20436;-47
2021/07/24 06:07:26;;;;;;;6.43;5.65;;;;;;;20.15;59.00;101366.06;6115400;28;20235;-48
2021/07/24 06:10:48;;;;;;;8.65;7.80;;;;;;;20.41;59.03;101367.63;6103645;28;20240;-49
2021/07/24 06:14:09;;;;;;;7.55;6.82;;;;;;;20.30;59.26;101375.13;6111977;28;20239;-49
2021/07/24 06:17:30;;;;;;;12.45;8.75;;;;;;;20.52;58.52;101373.31;6108615;28;20232;-53
2021/07/24 06:20:52;;;;;;;7.95;7.15;;;;;;;20.47;58.83;101372.66;6106992;28;20600;-51
2021/07/24 06:24:14;;;;;;;9.27;7.80;;;;;;;20.61;58.57;101364.19;6106754;28;20259;-49
2021/07/24 06:27:37;;;;;;;10.50;6.80;;;;;;;20.75;58.02;101360.94;6113436;28;20236;-52
2021/07/24 06:31:01;;;;;;;7.10;6.47;;;;;;;20.94;57.31;101366.31;6106770;28;20252;-51
2021/07/24 06:34:22;;;;;;;7.15;6.45;;;;;;;20.92;57.37;101347.84;6114872;28;20227;-47
2021/07/24 06:37:43;;;;;;;7.57;6.50;;;;;;;21.02;57.30;101338.56;6108638;28;20617;-52
2021/07/24 06:41:06;;;;;;;8.93;6.18;;;;;;;21.04;56.57;101339.34;6105161;28;20268;-51
2021/07/24 06:44:28;;;;;;;6.53;6.03;;;;;;;21.23;56.21;101335.88;6114174;28;20677;-49
2021/07/24 06:47:49;;;;;;;6.47;5.07;;;;;;;21.17;56.20;101329.06;6108419;28;20236;-48
2021/07/24 06:51:10;;;;;;;6.72;6.10;;;;;;;20.87;56.85;101326.00;6108000;28;20514;-50
2021/07/24 06:54:31;;;;;;;10.88;9.23;;;;;;;21.17;55.98;101321.13;6107888;28;20248;-50
2021/07/24 06:57:52;;;;;;;8.05;7.32;;;;;;;21.60;55.07;101313.00;6105954;28;20239;-50
2021/07/24 07:01:14;;;;;;;8.38;7.47;;;;;;;21.56;55.26;101312.28;6100001;28;20231;-48
2021/07/24 07:04:35;;;;;;;8.65;7.68;;;;;;;21.70;54.58;101305.47;6106217;28;20629;-50
2021/07/24 07:07:56;;;;;;;10.52;5.95;;;;;;;21.72;53.57;101301.81;6116409;28;20243;-49
2021/07/24 07:11:17;;;;;;;6.20;5.32;;;;;;;21.90;53.02;101304.50;6106892;28;20239;-52
2021/07/24 07:14:37;;;;;;;10.90;6.30;;;;;;;21.78;53.31;101300.66;6109812;28;20239;-49
2021/07/24 07:18:00;;;;;;;7.22;6.53;;;;;;;21.97;52.49;101298.81;6108493;28;20535;-51
2021/07/24 07:21:21;;;;;;;7.13;6.30;;;;;;;22.26;52.04;101293.91;6109294;28;20301;-52
2021/07/24 07:24:42;;;;;;;6.65;6.00;;;;;;;22.12;51.95;101294.56;6104115;28;20236;-51
2021/07/24 07:28:03;;;;;;;7.07;5.88;;;;;;;22.36;51.64;101291.63;6108415;28;20318;-48
2021/07/24 07:31:25;;;;;;;6.53;5.93;;;;;;;22.33;51.37;101286.47;6104023;28;20248;-50
2021/07/24 07:34:47;;;;;;;6.18;5.43;;;;;;;22.17;51.19;101275.75;6109854;28;20232;-48
2021/07/24 07:38:08;;;;;;;9.65;7.43;;;;;;;22.21;51.04;101277.31;6103672;28;20243;-52
2021/07/24 07:41:28;;;;;;;6.50;5.38;;;;;;;22.34;50.88;101275.78;6106517;28;20235;-50
2021/07/24 07:44:49;;;;;;;5.75;5.25;;;;;;;22.52;50.24;101273.13;6106551;28;20270;-53
2021/07/24 07:48:10;;;;;;;5.50;4.55;;;;;;;22.42;50.44;101280.72;6107591;28;20239;-54
2021/07/24 07:51:33;;;;;;;7.28;5.30;;;;;;;22.57;50.07;101274.59;6103030;28;20236;-52
2021/07/24 07:54:53;;;;;;;7.72;5.70;;;;;;;22.91;49.56;101267.50;6106837;28;20236;-50
2021/07/24 07:58:15;;;;;;;5.47;4.97;;;;;;;22.79;50.07;101253.09;6101364;28;20484;-48
2021/07/24 08:01:36;;;;;;;5.60;5.10;;;;;;;23.25;49.58;101260.41;6105950;28;20232;-53
2021/07/24 08:04:56;;;;;;;6.38;5.03;;;;;;;23.12;49.66;101254.03;6106682;28;20949;-50
2021/07/24 08:08:19;;;;;;;6.85;6.15;;;;;;;23.19;48.38;101248.31;6100564;28;20235;-50
2021/07/24 08:11:40;;;;;;;5.30;4.82;;;;;;;23.24;49.74;101252.50;6097039;28;20235;-51
2021/07/24 08:15:01;;;;;;;6.28;5.68;;;;;;;23.66;48.61;101245.72;6102864;28;20507;-53
2021/07/24 08:18:21;;;;;;;5.50;4.80;;;;;;;23.74;48.48;101233.69;6101593;28;20516;-49
2021/07/24 08:21:42;;;;;;;5.57;5.10;;;;;;;24.07;47.60;101229.19;6098862;28;20950;-50
2021/07/24 08:25:06;;;;;;;7.20;5.13;;;;;;;23.78;47.05;101221.09;6094797;28;20259;-51
2021/07/24 08:28:27;;;;;;;4.97;4.38;;;;;;;24.01;47.43;101222.41;6102527;28;20318;-48
2021/07/24 08:31:49;;;;;;;5.70;3.75;;;;;;;23.98;44.92;101212.81;6108660;28;20239;-51
2021/07/24 08:35:11;;;;;;;7.65;5.35;;;;;;;23.74;46.05;101207.09;6106541;28;20243;-54
2021/07/24 08:38:32;;;;;;;6.07;4.43;;;;;;;24.15;46.00;101209.13;6105242;28;20232;-53
2021/07/24 08:41:54;;;;;;;5.70;4.05;;;;;;;24.62;45.43;101211.69;6113451;28;20256;-50
2021/07/24 08:45:17;;;;;;;5.57;4.55;;;;;;;24.38;44.05;101207.75;6115700;28;20266;-52
2021/07/24 08:48:38;;;;;;;4.80;4.40;;;;;;;24.59;43.16;101217.22;6111624;28;20437;-52
2021/07/24 08:52:00;;;;;;;5.03;4.53;;;;;;;24.65;43.82;101211.50;6111294;28;20695;-48
2021/07/24 08:55:22;;;;;;;5.20;4.78;;;;;;;24.22;44.04;101206.13;6109483;28;20227;-54
2021/07/24 08:58:46;;;;;;;5.25;4.75;;;;;;;23.88;44.04;101208.13;6109401;28;20228;-52
2021/07/24 09:02:09;;;;;;;6.43;4.55;;;;;;;24.50;44.03;101206.13;6113977;28;20232;-49
2021/07/24 09:05:31;;;;;;;4.55;3.90;;;;;;;24.68;42.61;101212.19;6113006;28;20233;-53
2021/07/24 09:08:53;;;;;;;5.32;4.07;;;;;;;24.66;42.35;101207.88;6106225;28;20235;-52
2021/07/24 09:12:14;;;;;;;5.22;4.15;;;;;;;24.86;41.07;101207.50;6117473;28;20228;-50
2021/07/24 09:15:37;;;;;;;4.97;4.53;;;;;;;24.86;42.97;101196.84;6116776;28;20776;-54
2021/07/24 09:19:00;;;;;;;6.13;4.47;;;;;;;25.14;41.47;101192.41;6107534;28;20244;-49
2021/07/24 09:22:29;;;;;;;4.18;3.88;;;;;;;24.24;42.44;101185.59;6117701;28;20240;-50
2021/07/24 09:25:49;;;;;;;7.50;5.03;;;;;;;24.49;42.84;101193.78;6111722;28;20235;-53
2021/07/24 09:29:12;;;;;;;4.45;4.05;;;;;;;25.15;41.86;101195.00;6108270;28;20239;-46
2021/07/24 09:32:34;;;;;;;5.35;4.25;;;;;;;24.58;41.14;101191.53;6110922;28;20223;-53
2021/07/24 09:35:56;;;;;;;5.03;4.53;;;;;;;24.86;41.44;101196.00;6121011;28;20926;-51
2021/07/24 09:39:19;;;;;;;4.30;3.90;;;;;;;25.06;41.38;101189.41;6109092;28;20259;-52
2021/07/24 09:42:40;;;;;;;5.10;4.60;;;;;;;25.30;40.40;101187.84;6116574;28;20228;-54
2021/07/24 09:46:09;;;;;;;5.28;4.43;;;;;;;25.29;39.91;101183.47;6115499;28;20263;-48
2021/07/24 09:49:39;;;;;;;4.25;3.85;;;;;;;25.54;40.65;101173.84;6111473;28;20231;-48
2021/07/24 09:52:59;;;;;;;7.80;7.10;;;;;;;25.62;39.66;101166.19;6113505;28;20247;-51
2021/07/24 09:56:21;;;;;;;6.55;4.32;;;;;;;24.75;41.46;101175.38;6111057;28;20970;-53
2021/07/24 09:59:42;;;;;;;5.10;4.32;;;;;;;25.67;40.87;101161.41;6103843;28;20512;-52
2021/07/24 10:03:05;;;;;;;5.50;4.00;;;;;;;25.70;40.65;101168.34;6107674;28;20255;-48
2021/07/24 10:06:27;;;;;;;4.47;4.13;;;;;;;25.57;40.42;101168.34;6111161;28;20350;-47
2021/07/24 10:09:48;;;;;;;5.22;4.25;;;;;;;25.95;39.46;101178.25;6106983;28;20247;-49
2021/07/24 10:13:10;;;;;;;4.32;3.83;;;;;;;25.48;39.80;101180.44;6105658;28;20232;-48
2021/07/24 10:16:32;;;;;;;4.80;4.00;;;;;;;25.93;38.96;101180.16;6111261;28;20236;-51
2021/07/24 10:19:53;;;;;;;4.70;3.60;;;;;;;26.34;38.89;101179.13;6097316;28;20259;-53
2021/07/24 10:23:17;;;;;;;7.95;5.03;;;;;;;26.36;38.94;101177.19;6111065;28;20356;-51
2021/07/24 10:26:40;;;;;;;8.30;4.88;;;;;;;26.68;38.65;101176.78;6111993;28;20232;-51
2021/07/24 10:30:04;;;;;;;9.00;7.68;;;;;;;26.66;38.77;101178.72;6111021;28;20235;-50
2021/07/24 10:33:30;;;;;;;9.43;6.85;;;;;;;26.79;37.96;101168.81;6104443;28;20227;-52
2021/07/24 10:36:51;;;;;;;5.15;3.78;;;;;;;27.00;37.28;101160.22;6106715;28;20240;-53
2021/07/24 10:40:35;;;;;;;6.10;5.53;;;;;;;26.10;37.85;101161.19;6115287;28;20232;-53
2021/07/24 10:44:03;;;;;;;4.88;4.47;;;;;;;26.35;38.60;101170.16;6110807;28;20440;-53
2021/07/24 10:47:24;;;;;;;4.70;4.25;;;;;;;26.83;37.03;101159.66;6107073;28;20228;-54
2021/07/24 10:51:13;;;;;;;5.25;4.85;;;;;;;27.44;36.58;101158.81;6111211;28;20232;-50
2021/07/24 10:54:54;;;;;;;5.35;4.78;;;;;;;26.72;35.55;101156.91;6106552;28;20856;-51
2021/07/24 10:58:22;;;;;;;5.70;4.50;;;;;;;25.95;37.36;101140.88;6108743;28;20845;-50
2021/07/24 11:01:47;;;;;;;6.63;4.95;;;;;;;26.66;36.44;101144.84;6114662;28;20498;-50
2021/07/24 11:05:23;;;;;;;8.85;4.30;;;;;;;26.76;36.91;101137.00;6099650;28;20700;-54
2021/07/24 11:09:10;;;;;;;9.40;4.97;;;;;;;27.83;35.67;101124.63;6098043;28;20502;-49
2021/07/24 11:12:34;;;;;;;6.68;5.32;;;;;;;26.66;36.70;101125.28;6104534;28;20243;-53
2021/07/24 11:15:57;;;;;;;7.72;5.20;;;;;;;26.10;37.46;101118.47;6109520;28;20235;-55
2021/07/24 11:19:18;;;;;;;5.53;4.80;;;;;;;26.59;36.78;101119.53;6103392;28;20236;-53
2021/07/24 11:23:00;;;;;;;4.65;4.10;;;;;;;27.96;35.40;101109.38;6106711;28;20232;-55
2021/07/24 11:26:21;;;;;;;6.95;5.63;;;;;;;28.83;34.38;101106.91;6100096;28;20228;-55
2021/07/24 11:29:42;;;;;;;6.32;4.55;;;;;;;28.98;33.70;101098.56;6096197;28;20240;-52
2021/07/24 11:33:05;;;;;;;4.85;4.45;;;;;;;28.84;32.26;101100.56;6099384;28;20243;-55
2021/07/24 11:36:26;;;;;;;5.60;4.90;;;;;;;28.26;34.72;101092.69;6102020;28;20232;-51
2021/07/24 11:39:54;;;;;;;5.03;4.53;;;;;;;29.00;34.29;101093.94;6097301;28;20556;-52
2021/07/24 11:43:15;;;;;;;5.68;4.95;;;;;;;29.70;32.98;101086.31;6108469;28;20227;-53
2021/07/24 11:46:36;;;;;;;6.47;5.85;;;;;;;29.61;32.52;101082.59;6098350;28;20847;-55
2021/07/24 11:50:14;;;;;;;5.30;4.68;;;;;;;29.97;32.72;101075.06;6107360;28;20315;-53
2021/07/24 11:53:36;;;;;;;5.35;4.93;;;;;;;30.02;31.69;101078.19;6084931;28;20723;-55
2021/07/24 11:56:56;;;;;;;4.15;3.83;;;;;;;30.12;32.23;101088.97;6083263;28;21054;-49
2021/07/24 12:00:29;;;;;;;5.20;4.28;;;;;;;30.19;32.11;101087.47;6099737;28;20338;-53
2021/07/24 12:04:07;;;;;;;5.05;4.65;;;;;;;29.40;32.25;101085.28;6104587;28;20259;-55
2021/07/24 12:07:30;;;;;;;6.00;5.50;;;;;;;29.41;32.21;101084.28;6109627;28;20239;-52
2021/07/24 12:10:53;;;;;;;5.60;5.00;;;;;;;29.39;33.27;101070.16;6092619;28;20231;-53
2021/07/24 12:14:14;;;;;;;6.30;5.13;;;;;;;30.32;32.86;101074.69;6099123;28;20243;-55
2021/07/24 12:17:35;;;;;;;6.15;5.55;;;;;;;30.10;32.15;101067.63;6101362;28;20359;-55
2021/07/24 12:21:13;;;;;;;6.28;5.68;;;;;;;30.78;31.28;101059.78;6102483;28;20565;-50
2021/07/24 12:24:35;;;;;;;6.63;6.03;;;;;;;30.19;31.88;101060.63;6102082;28;20538;-54
2021/07/24 12:27:56;;;;;;;7.40;6.25;;;;;;;29.11;32.65;101061.72;6055051;28;82540;-49
2021/07/24 12:31:25;;;;;;;7.80;7.13;;;;;;;30.11;31.90;101060.41;6131918;28;20239;-54
2021/07/24 12:34:47;;;;;;;7.78;7.07;;;;;;;29.07;32.51;101054.94;6120915;28;20734;-51
2021/07/24 12:38:08;;;;;;;6.45;5.85;;;;;;;30.10;32.01;101042.63;6125243;28;20258;-53
2021/07/24 12:41:31;;;;;;;9.07;6.70;;;;;;;29.67;32.38;101041.00;6124053;28;20223;-56
2021/07/24 12:44:53;;;;;;;6.80;6.20;;;;;;;30.91;31.81;101042.56;6132325;28;20821;-54
2021/07/24 12:48:17;;;;;;;8.15;7.55;;;;;;;31.20;29.48;101031.81;6141047;28;20235;-54
2021/07/24 12:51:40;;;;;;;8.38;7.60;;;;;;;31.49;29.02;101036.34;6129569;28;20234;-52
2021/07/24 12:55:02;;;;;;;8.75;8.02;;;;;;;31.89;29.36;101037.88;6124738;28;20582;-52
2021/07/24 12:58:24;;;;;;;5.97;5.35;;;;;;;33.57;27.21;101026.66;6128055;28;20227;-54
2021/07/24 13:01:47;;;;;;;7.78;7.13;;;;;;;36.02;24.19;101028.06;6130009;28;20418;-52
2021/07/24 13:05:09;;;;;;;7.13;6.53;;;;;;;38.06;21.66;101029.31;6130529;28;20250;-55
2021/07/24 13:08:30;;;;;;;9.80;9.00;;;;;;;36.97;22.07;101033.31;6121273;28;20243;-53
2021/07/24 13:11:51;;;;;;;12.15;11.05;;;;;;;34.92;23.11;101025.84;6141815;28;20916;-51
2021/07/24 13:15:14;;;;;;;10.13;9.25;;;;;;;36.09;21.51;101034.47;6127508;28;20303;-52
2021/07/24 13:18:35;;;;;;;8.95;8.25;;;;;;;39.19;19.58;101016.97;6119548;28;20231;-50
2021/07/24 13:21:57;;;;;;;8.43;7.72;;;;;;;39.54;18.32;101020.56;6123425;28;20609;-51
2021/07/24 13:25:42;;;;;;;10.18;9.27;;;;;;;39.96;17.58;101013.28;6127434;28;20258;-53
2021/07/24 13:29:02;;;;;;;8.20;7.60;;;;;;;39.41;18.29;101006.00;6126959;28;20231;-51
2021/07/24 13:32:25;;;;;;;8.65;7.85;;;;;;;38.14;20.10;101008.34;6137988;28;20243;-50
2021/07/24 13:35:47;;;;;;;8.35;7.65;;;;;;;38.86;18.49;100990.28;6126023;28;20238;-51
2021/07/24 13:39:08;;;;;;;8.77;7.97;;;;;;;37.01;20.34;101007.50;6119178;28;20618;-50
2021/07/24 13:42:30;;;;;;;10.13;9.32;;;;;;;38.21;19.73;101001.13;6124204;28;20676;-55
2021/07/24 13:45:51;;;;;;;10.60;9.63;;;;;;;37.76;19.95;100992.16;6127906;28;20235;-49
2021/07/24 13:49:13;;;;;;;9.35;8.52;;;;;;;37.53;20.28;100994.94;6130386;28;20330;-48
2021/07/24 13:52:34;;;;;;;10.27;8.73;;;;;;;33.85;24.31;100990.41;6134731;28;20243;-51
2021/07/24 13:55:55;;;;;;;9.95;9.15;;;;;;;34.40;24.90;100990.94;6135162;28;20576;-50
2021/07/24 13:59:16;;;;;;;9.18;8.35;;;;;;;35.40;23.25;100998.94;6125602;28;20287;-52
2021/07/24 14:02:38;;;;;;;8.25;7.50;;;;;;;35.44;23.62;100986.75;6143343;28;20238;-52
2021/07/24 14:06:02;;;;;;;10.75;9.82;;;;;;;35.47;23.25;100989.97;6131061;28;20228;-54
2021/07/24 14:09:23;;;;;;;9.73;8.82;;;;;;;33.93;25.45;100984.19;6132036;28;20227;-55
2021/07/24 14:12:44;;;;;;;9.27;8.48;;;;;;;34.81;24.97;100982.91;6137069;28;20235;-50
2021/07/24 14:16:10;;;;;;;9.20;8.38;;;;;;;35.55;23.92;100988.25;6131771;28;20330;-53
2021/07/24 14:19:32;;;;;;;9.88;8.88;;;;;;;33.86;25.68;100983.97;6122784;28;20246;-55
2021/07/24 14:22:54;;;;;;;8.95;8.15;;;;;;;33.86;26.18;100986.69;6128147;28;20231;-52
2021/07/24 14:26:15;;;;;;;10.77;9.65;;;;;;;33.08;27.45;100968.63;6124954;28;20239;-55
2021/07/24 14:29:37;;;;;;;10.15;9.20;;;;;;;32.15;28.61;100973.47;6123916;28;20231;-54
2021/07/24 14:32:58;;;;;;;10.15;9.25;;;;;;;32.61;27.92;100962.66;6131345;28;20239;-52
2021/07/24 14:36:20;;;;;;;8.60;7.90;;;;;;;32.21;28.64;100959.38;6119548;28;20243;-50
2021/07/24 14:39:42;;;;;;;10.20;9.40;;;;;;;32.24;28.81;100947.44;6127809;28;20227;-50
2021/07/24 14:43:03;;;;;;;9.48;8.75;;;;;;;31.99;28.34;100948.00;6139806;28;20231;-55
2021/07/24 14:46:24;;;;;;;9.85;9.05;;;;;;;32.47;28.09;100950.53;6135606;28;20227;-53
2021/07/24 14:49:45;;;;;;;10.60;9.50;;;;;;;33.24;27.25;100935.53;6120822;28;20231;-54
2021/07/24 14:53:06;;;;;;;9.00;8.27;;;;;;;33.75;26.20;100919.44;6133747;28;20234;-52
2021/07/24 14:56:28;;;;;;;9.52;8.75;;;;;;;32.73;27.88;100919.16;6125728;28;20231;-51
2021/07/24 14:59:50;;;;;;;9.23;8.43;;;;;;;32.98;27.75;100911.25;6124815;28;20222;-49
2021/07/24 15:03:10;;;;;;;8.63;8.02;;;;;;;33.36;26.81;100914.53;6127041;28;20256;-53
2021/07/24 15:06:32;;;;;;;9.98;9.02;;;;;;;32.92;27.20;100907.31;6131357;28;20279;-51
2021/07/24 15:09:53;;;;;;;9.70;8.90;;;;;;;32.75;27.69;100900.97;6132057;28;20226;-50
2021/07/24 15:13:18;;;;;;;9.38;8.57;;;;;;;32.38;28.55;100903.81;6129085;28;20257;-52
2021/07/24 15:16:38;;;;;;;8.55;7.82;;;;;;;33.32;26.97;100902.38;6130272;28;20600;-53
2021/07/24 15:20:00;;;;;;;10.18;9.38;;;;;;;32.92;26.86;100903.75;6132282;28;20250;-52
2021/07/24 15:23:21;;;;;;;10.07;9.27;;;;;;;33.38;26.79;100906.28;6128788;28;20239;-51
2021/07/24 15:26:42;;;;;;;10.52;9.52;;;;;;;33.46;26.47;100895.50;6125604;28;20231;-50
2021/07/24 15:30:05;;;;;;;9.90;9.10;;;;;;;33.09;27.40;100900.16;6132793;28;20555;-50
2021/07/24 15:33:27;;;;;;;10.68;9.73;;;;;;;33.17;26.95;100893.16;6135043;28;20239;-53
2021/07/24 15:36:48;;;;;;;9.32;8.50;;;;;;;33.69;27.01;100887.72;6127833;28;20235;-51
2021/07/24 15:40:10;;;;;;;10.70;8.80;;;;;;;33.59;26.69;100885.13;6120391;28;20239;-54
2021/07/24 15:43:31;;;;;;;9.95;8.98;;;;;;;33.65;26.14;100880.94;6132401;28;20239;-53
2021/07/24 15:46:53;;;;;;;10.50;9.70;;;;;;;33.31;26.97;100879.09;6130353;28;20640;-53